PABE/BET METAR and TAF weather

Enter ICAO airport designator
Station Type Date Time Source
PABE METAR 2022/10/01 06:53 UTC NOAA

PABE 010653Z 14005KT 10SM CLR 02/02 A2965 RMK AO2 SLP042 T00220017


Station Type Date Time Source
PABE Decoded METAR 2022/10/01 06:53 UTC NOAA

BETHEL AIRPORT, AK, United States (PABE) 60-47N 161-50W 46M
Oct 01, 2022 - 02:53 AM EDT / 2022.10.01 0653 UTC
Wind: from the SE (140 degrees) at 6 MPH (5 KT):0
Visibility: 10 mile(s):0
Sky conditions: clear
Temperature: 36.0 F (2.2 C)
Dew Point: 35.1 F (1.7 C)
Relative Humidity: 96%
Pressure (altimeter): 29.65 in. Hg (1004 hPa)
ob: PABE 010653Z 14005KT 10SM CLR 02/02 A2965 RMK AO2 SLP042 T00220017
cycle: 7

Station Type Date Time Source
PABE TAF 2022/10/01 06:33 UTC NOAA

TAF PABE 010530Z 0106/0206 15005KT P6SM SCT020
TEMPO 0106/0110 BKN020
FM012100 11008KT P6SM -SHRA BKN025

Example: see airport list